createdAt,value
2023-04-11T00:00:57.611Z,28.03
2023-04-11T00:03:25.909Z,25.27
2023-04-11T00:05:53.954Z,21.73
2023-04-11T00:08:22.016Z,27.83
2023-04-11T00:10:49.945Z,24.83
2023-04-11T00:13:19.686Z,28.40
2023-04-11T00:15:47.761Z,26.00
2023-04-11T00:18:17.089Z,22.50
2023-04-11T00:20:44.964Z,24.40
2023-04-11T00:23:13.221Z,24.60
2023-04-11T00:25:41.394Z,21.80
2023-04-11T00:28:09.317Z,24.07
2023-04-11T00:30:37.347Z,23.00
2023-04-11T00:33:05.388Z,22.00
2023-04-11T00:35:37.698Z,21.53
2023-04-11T00:38:05.655Z,19.67
2023-04-11T00:40:33.560Z,22.07
2023-04-11T00:43:01.542Z,20.87
2023-04-11T00:45:29.483Z,23.40
2023-04-11T00:47:57.476Z,21.37
2023-04-11T00:50:26.012Z,21.03
2023-04-11T00:52:57.706Z,20.43
2023-04-11T00:55:25.813Z,21.87
2023-04-11T00:57:55.783Z,24.03
2023-04-11T01:00:24.559Z,22.10
2023-04-11T01:02:52.618Z,27.70
2023-04-11T01:05:22.210Z,21.87
2023-04-11T01:07:54.802Z,22.33
2023-04-11T01:10:24.767Z,24.57
2023-04-11T01:12:53.964Z,26.83
2023-04-11T01:15:22.053Z,26.40
2023-04-11T01:17:50.250Z,23.93
2023-04-11T01:20:18.474Z,22.80
2023-04-11T01:22:47.574Z,22.30
2023-04-11T01:25:17.034Z,23.70
2023-04-11T01:27:44.942Z,21.80
2023-04-11T01:30:13.490Z,21.90
2023-04-11T01:32:41.357Z,20.23
2023-04-11T01:35:11.328Z,20.90
2023-04-11T01:37:39.960Z,24.73
2023-04-11T01:40:09.788Z,23.33
2023-04-11T01:42:39.931Z,24.23
2023-04-11T01:45:09.560Z,21.40
2023-04-11T01:47:37.607Z,22.50
2023-04-11T01:50:06.940Z,20.57
2023-04-11T01:52:34.836Z,22.70
2023-04-11T01:55:04.177Z,24.47
2023-04-11T01:57:32.147Z,21.13
2023-04-11T02:00:01.517Z,21.53
2023-04-11T02:02:29.551Z,22.10
2023-04-11T02:04:58.171Z,21.57
2023-04-11T02:07:26.173Z,24.03
2023-04-11T02:09:54.058Z,20.83
2023-04-11T02:12:22.015Z,21.13
2023-04-11T02:14:49.955Z,21.90
2023-04-11T02:17:20.848Z,23.93
2023-04-11T02:19:49.379Z,26.60
2023-04-11T02:22:17.304Z,23.97
2023-04-11T02:24:46.429Z,20.50
2023-04-11T02:27:14.518Z,22.70
2023-04-11T02:29:42.342Z,26.00
2023-04-11T02:32:10.554Z,25.97
2023-04-11T02:34:41.352Z,24.90
2023-04-11T02:37:09.391Z,23.30
2023-04-11T02:39:37.278Z,25.37
2023-04-11T02:42:05.447Z,21.87
2023-04-11T02:44:33.777Z,21.80
2023-04-11T02:47:02.329Z,22.47
2023-04-11T02:49:30.789Z,21.87
2023-04-11T02:52:01.443Z,27.77
2023-04-11T02:54:29.403Z,22.80
2023-04-11T02:57:02.159Z,22.37
2023-04-11T02:59:30.609Z,22.73
2023-04-11T03:02:00.543Z,24.13
2023-04-11T03:04:29.273Z,22.80
2023-04-11T03:07:14.491Z,23.10
2023-04-11T03:09:43.246Z,19.80
2023-04-11T03:12:11.309Z,21.30
2023-04-11T03:14:49.188Z,17.33
2023-04-11T03:17:17.272Z,18.80
2023-04-11T03:19:45.241Z,22.60
2023-04-11T03:22:14.647Z,20.87
2023-04-11T03:24:42.795Z,19.60
2023-04-11T03:27:10.765Z,22.10
2023-04-11T03:29:42.036Z,21.40
2023-04-11T03:32:16.623Z,19.70
2023-04-11T03:34:44.572Z,21.30
2023-04-11T03:37:15.020Z,28.00
2023-04-11T03:39:42.901Z,19.10
2023-04-11T03:42:12.603Z,19.60
2023-04-11T03:44:40.769Z,22.27
2023-04-11T03:47:08.826Z,22.57
2023-04-11T03:49:41.713Z,19.43
2023-04-11T03:52:11.485Z,19.57
2023-04-11T03:54:42.387Z,22.00
2023-04-11T03:57:11.826Z,26.20
2023-04-11T03:59:40.351Z,19.07
2023-04-11T04:02:10.988Z,22.60
2023-04-11T04:04:47.169Z,21.30
2023-04-11T04:07:28.905Z,16.47
2023-04-11T04:10:09.577Z,28.27
2023-04-11T04:12:37.534Z,22.37
2023-04-11T04:15:14.804Z,20.70
2023-04-11T04:17:45.237Z,18.70
2023-04-11T04:20:19.200Z,18.90
2023-04-11T04:22:53.907Z,19.20
2023-04-11T04:25:31.746Z,21.50
2023-04-11T04:28:01.030Z,22.97
2023-04-11T04:30:37.990Z,17.80
2023-04-11T04:33:12.342Z,19.50
2023-04-11T04:35:44.317Z,17.10
2023-04-11T04:38:17.834Z,19.13
2023-04-11T04:40:56.372Z,24.43
2023-04-11T04:43:27.219Z,16.83
2023-04-11T04:46:03.368Z,23.47
2023-04-11T04:48:40.122Z,18.83
2023-04-11T04:51:09.116Z,22.23
2023-04-11T04:53:38.767Z,18.90
2023-04-11T04:56:10.967Z,21.50
2023-04-11T04:58:42.088Z,22.43
2023-04-11T05:01:13.528Z,26.80
2023-04-11T05:03:41.760Z,20.60
2023-04-11T05:06:15.008Z,22.83
2023-04-11T05:08:46.477Z,24.20
2023-04-11T05:11:16.844Z,24.37
2023-04-11T05:13:44.708Z,22.20
2023-04-11T05:16:12.713Z,22.00
2023-04-11T05:18:40.824Z,21.90
2023-04-11T05:21:08.967Z,21.77
2023-04-11T05:23:41.868Z,21.10
2023-04-11T05:26:10.483Z,25.80
2023-04-11T05:28:41.524Z,24.30
2023-04-11T05:31:13.825Z,21.33
2023-04-11T05:33:42.166Z,22.13
2023-04-11T05:36:13.929Z,21.27
2023-04-11T05:38:42.221Z,18.60
2023-04-11T05:41:10.459Z,20.50
2023-04-11T05:43:38.402Z,22.07
2023-04-11T05:46:09.053Z,20.63
2023-04-11T05:48:38.181Z,22.60
2023-04-11T05:51:06.632Z,18.90
2023-04-11T05:53:35.348Z,20.87
2023-04-11T05:56:03.881Z,22.20
2023-04-11T05:58:31.778Z,21.40
2023-04-11T06:01:00.749Z,32.20
2023-04-11T06:03:30.107Z,21.07
2023-04-11T06:05:58.071Z,22.40
2023-04-11T06:08:25.953Z,19.50
2023-04-11T06:10:53.881Z,20.83
2023-04-11T06:13:21.732Z,20.77
2023-04-11T06:15:49.899Z,21.20
2023-04-11T06:18:17.761Z,21.93
2023-04-11T06:20:48.885Z,19.93
2023-04-11T06:23:16.814Z,20.13
2023-04-11T06:25:44.690Z,19.10
2023-04-11T06:28:12.583Z,19.60
2023-04-11T06:30:40.422Z,18.00
2023-04-11T06:33:08.372Z,15.60
2023-04-11T06:35:36.912Z,19.43
2023-04-11T06:38:06.181Z,16.97
2023-04-11T06:40:35.395Z,16.80
2023-04-11T06:43:03.264Z,16.27
2023-04-11T06:45:32.018Z,12.87
2023-04-11T06:47:59.988Z,19.10
2023-04-11T06:50:28.045Z,15.43
2023-04-11T06:52:58.265Z,16.33
2023-04-11T06:55:27.522Z,15.43
2023-04-11T06:57:55.586Z,15.90
2023-04-11T07:00:24.041Z,17.00
2023-04-11T07:02:52.579Z,20.87
2023-04-11T07:05:20.809Z,14.40
2023-04-11T07:07:48.832Z,15.80
2023-04-11T07:10:16.744Z,14.80
2023-04-11T07:12:45.978Z,15.17
2023-04-11T07:15:13.856Z,14.00
2023-04-11T07:17:41.731Z,14.97
2023-04-11T07:20:11.126Z,16.00
2023-04-11T07:22:42.415Z,14.93
2023-04-11T07:25:10.617Z,19.20
2023-04-11T07:27:38.900Z,18.27
2023-04-11T07:30:09.757Z,16.47
2023-04-11T07:32:37.632Z,19.27
2023-04-11T07:35:06.035Z,19.90
2023-04-11T07:37:33.889Z,16.97
2023-04-11T07:40:04.514Z,17.93
2023-04-11T07:42:32.504Z,20.63
2023-04-11T07:45:00.353Z,18.40
2023-04-11T07:47:29.729Z,18.60
2023-04-11T07:49:58.568Z,15.57
2023-04-11T07:52:27.027Z,16.67
2023-04-11T07:54:55.834Z,13.30
2023-04-11T07:57:23.743Z,16.10
2023-04-11T07:59:51.895Z,14.23
2023-04-11T08:02:19.885Z,18.90
2023-04-11T08:04:49.434Z,14.17
2023-04-11T08:07:17.498Z,15.87
2023-04-11T08:09:45.392Z,15.47
2023-04-11T08:12:13.268Z,15.20
2023-04-11T08:14:41.133Z,14.70
2023-04-11T08:17:21.119Z,14.97
2023-04-11T08:19:57.470Z,14.00
2023-04-11T08:22:26.004Z,14.97
2023-04-11T08:24:53.910Z,14.80
2023-04-11T08:27:21.933Z,15.03
2023-04-11T08:29:49.755Z,14.40
2023-04-11T08:32:17.671Z,13.20
2023-04-11T08:34:45.564Z,14.60
2023-04-11T08:37:14.901Z,17.27
2023-04-11T08:39:42.753Z,12.53
2023-04-11T08:42:23.495Z,17.03
2023-04-11T08:44:54.561Z,16.63
2023-04-11T08:47:22.634Z,23.10
2023-04-11T08:49:51.124Z,23.77
2023-04-11T08:52:21.392Z,20.50
2023-04-11T08:54:50.127Z,19.10
2023-04-11T08:57:28.343Z,18.80
2023-04-11T08:59:57.650Z,18.37
2023-04-11T09:02:25.667Z,20.37
2023-04-11T09:04:54.611Z,19.00
2023-04-11T09:07:23.913Z,20.37
2023-04-11T09:09:51.921Z,16.50
2023-04-11T09:12:29.617Z,18.27
2023-04-11T09:14:57.874Z,17.33
2023-04-11T09:17:25.924Z,19.30
2023-04-11T09:19:53.976Z,15.33
2023-04-11T09:22:36.501Z,18.00
2023-04-11T09:25:04.823Z,16.47
2023-04-11T09:27:32.707Z,17.43
2023-04-11T09:30:03.681Z,16.80
2023-04-11T09:32:34.008Z,21.13
2023-04-11T09:35:09.617Z,21.63
2023-04-11T09:37:46.756Z,21.30
2023-04-11T09:40:16.647Z,20.20
2023-04-11T09:42:46.021Z,24.13
2023-04-11T09:45:19.456Z,19.70
2023-04-11T09:47:49.013Z,22.63
2023-04-11T09:50:17.504Z,23.60
2023-04-11T09:52:47.495Z,21.47
2023-04-11T09:55:16.848Z,22.57
2023-04-11T09:57:47.477Z,26.60
2023-04-11T10:00:18.067Z,21.23
2023-04-11T10:02:48.978Z,26.73
2023-04-11T10:05:18.943Z,20.83
2023-04-11T10:07:50.463Z,19.27
2023-04-11T10:10:21.054Z,22.37
2023-04-11T10:12:50.219Z,21.70
2023-04-11T10:15:19.019Z,23.53
2023-04-11T10:18:14.078Z,23.77
2023-04-11T10:20:44.812Z,22.30
2023-04-11T10:23:16.038Z,21.97
2023-04-11T10:25:52.503Z,26.67
2023-04-11T10:28:38.765Z,20.97
2023-04-11T10:31:09.952Z,23.23
2023-04-11T10:33:39.676Z,22.63
2023-04-11T10:36:10.251Z,24.30
2023-04-11T10:38:51.190Z,21.60
2023-04-11T10:41:31.795Z,18.27
2023-04-11T10:44:15.708Z,22.20
2023-04-11T10:46:51.891Z,21.37
2023-04-11T10:49:37.627Z,16.97
2023-04-11T10:52:20.578Z,17.40
2023-04-11T10:54:50.849Z,19.13
2023-04-11T10:57:19.339Z,20.80
2023-04-11T11:00:13.121Z,21.47
2023-04-11T11:02:42.500Z,16.17
2023-04-11T11:05:21.922Z,14.30
2023-04-11T11:07:51.722Z,15.67
2023-04-11T11:10:41.537Z,15.87
2023-04-11T11:13:09.838Z,21.70
2023-04-11T11:15:38.589Z,15.10
2023-04-11T11:18:09.470Z,16.87
2023-04-11T11:20:37.938Z,15.20
2023-04-11T11:23:07.742Z,14.20
2023-04-11T11:25:36.267Z,19.13
2023-04-11T11:28:06.726Z,19.33
2023-04-11T11:30:35.392Z,17.17
2023-04-11T11:33:16.045Z,19.63
2023-04-11T11:35:46.429Z,17.10
2023-04-11T11:38:14.571Z,17.40
2023-04-11T11:40:42.512Z,20.43
2023-04-11T11:43:12.162Z,21.63
2023-04-11T11:45:40.239Z,18.90
2023-04-11T11:48:08.364Z,21.40
2023-04-11T11:50:36.302Z,22.90
2023-04-11T11:53:14.379Z,22.93
2023-04-11T11:55:43.381Z,24.50
2023-04-11T11:58:12.616Z,27.30
2023-04-11T12:00:41.581Z,26.87
2023-04-11T12:03:10.952Z,28.30
2023-04-11T12:05:39.472Z,27.60
2023-04-11T12:08:08.963Z,32.37
2023-04-11T12:10:39.386Z,32.87
2023-04-11T12:13:19.925Z,22.93
2023-04-11T12:15:51.801Z,28.27
2023-04-11T12:18:21.723Z,25.27
2023-04-11T12:20:49.793Z,25.97
2023-04-11T12:23:17.939Z,27.67
2023-04-11T12:25:46.685Z,29.73
2023-04-11T12:28:14.970Z,24.23
2023-04-11T12:30:44.278Z,25.23
2023-04-11T12:33:12.152Z,30.57
2023-04-11T12:35:40.117Z,35.00
2023-04-11T12:38:08.196Z,27.80
2023-04-11T12:40:36.230Z,25.17
2023-04-11T12:43:04.112Z,27.27
2023-04-11T12:45:33.180Z,31.70
2023-04-11T12:48:02.652Z,28.57
2023-04-11T12:50:30.623Z,31.10
2023-04-11T12:52:58.707Z,24.80
2023-04-11T12:55:26.824Z,24.50
2023-04-11T12:57:54.733Z,27.43
2023-04-11T13:00:23.133Z,23.10
2023-04-11T13:02:51.218Z,24.63
2023-04-11T13:05:20.574Z,22.80
2023-04-11T13:07:48.743Z,23.07
2023-04-11T13:10:17.067Z,23.10
2023-04-11T13:12:46.374Z,21.83
2023-04-11T13:15:16.215Z,25.30
2023-04-11T13:17:44.705Z,26.37
2023-04-11T13:20:13.609Z,27.93
2023-04-11T13:22:44.263Z,28.47
2023-04-11T13:25:13.027Z,25.30
2023-04-11T13:27:42.255Z,26.00
2023-04-11T13:30:11.199Z,29.53
2023-04-11T13:32:39.341Z,26.80
2023-04-11T13:35:08.236Z,38.03
2023-04-11T13:37:36.249Z,29.47
2023-04-11T13:40:08.434Z,27.90
2023-04-11T13:42:36.614Z,31.93
2023-04-11T13:45:05.514Z,31.43
2023-04-11T13:47:34.739Z,29.30
2023-04-11T13:50:04.126Z,33.30
2023-04-11T13:52:32.000Z,27.00
2023-04-11T13:54:59.927Z,29.90
2023-04-11T13:57:29.278Z,29.80
2023-04-11T13:59:57.309Z,29.20
2023-04-11T14:02:25.258Z,33.63
2023-04-11T14:04:53.550Z,35.17
2023-04-11T14:07:21.428Z,32.17
2023-04-11T14:09:49.273Z,29.27
2023-04-11T14:12:17.131Z,36.07
2023-04-11T14:14:46.293Z,32.27
2023-04-11T14:17:14.157Z,27.87
2023-04-11T14:19:42.327Z,32.33
2023-04-11T14:22:10.724Z,31.50
2023-04-11T14:24:38.669Z,28.53
2023-04-11T14:27:06.600Z,28.10
2023-04-11T14:29:35.135Z,28.83
2023-04-11T14:32:05.286Z,24.50
2023-04-11T14:34:33.394Z,26.93
2023-04-11T14:37:01.286Z,29.70
2023-04-11T14:39:29.290Z,23.93
2023-04-11T14:41:57.160Z,25.77
2023-04-11T14:44:25.064Z,28.30
2023-04-11T14:46:52.943Z,29.73
2023-04-11T14:49:22.265Z,33.77
2023-04-11T14:51:50.206Z,27.40
2023-04-11T14:54:18.111Z,28.17
2023-04-11T14:56:47.518Z,28.13
2023-04-11T14:59:15.488Z,26.60
2023-04-11T15:01:43.495Z,24.60
2023-04-11T15:04:11.608Z,25.10
2023-04-11T15:06:40.938Z,24.40
2023-04-11T15:09:09.448Z,24.70
2023-04-11T15:11:37.533Z,23.17
2023-04-11T15:14:05.582Z,19.47
2023-04-11T15:16:33.397Z,17.80
2023-04-11T15:19:01.308Z,18.90
2023-04-11T15:21:32.566Z,21.63
2023-04-11T15:24:06.509Z,19.43
2023-04-11T15:26:34.536Z,17.53
2023-04-11T15:29:02.397Z,15.80
2023-04-11T15:31:30.707Z,16.40
2023-04-11T15:34:01.356Z,12.50
2023-04-11T15:36:32.132Z,11.20
2023-04-11T15:39:01.691Z,11.80
2023-04-11T15:41:30.552Z,10.70
2023-04-11T15:44:00.451Z,10.90
2023-04-11T15:46:29.128Z,10.27
2023-04-11T15:48:56.949Z,11.40
2023-04-11T15:51:24.989Z,14.77
2023-04-11T15:53:52.824Z,14.20
2023-04-11T15:56:22.327Z,16.43
2023-04-11T15:58:50.393Z,15.07
2023-04-11T16:01:23.029Z,13.60
2023-04-11T16:03:51.702Z,14.90
2023-04-11T16:06:20.010Z,13.57
2023-04-11T16:08:47.889Z,13.43
2023-04-11T16:11:15.766Z,16.10
2023-04-11T16:13:45.118Z,19.50
2023-04-11T16:16:12.991Z,13.47
2023-04-11T16:18:40.967Z,14.97
2023-04-11T16:21:13.709Z,15.87
2023-04-11T16:23:42.169Z,11.30
2023-04-11T16:26:10.711Z,15.23
2023-04-11T16:28:38.689Z,22.00
2023-04-11T16:31:09.260Z,15.77
2023-04-11T16:33:37.251Z,15.43
2023-04-11T16:36:05.682Z,12.57
2023-04-11T16:38:33.598Z,13.83
2023-04-11T16:41:01.542Z,15.87
2023-04-11T16:43:29.345Z,15.53
2023-04-11T16:45:57.555Z,15.90
2023-04-11T16:48:27.109Z,16.13
2023-04-11T16:50:54.960Z,14.40
2023-04-11T16:53:22.838Z,12.77
2023-04-11T16:55:52.554Z,10.13
2023-04-11T16:58:20.482Z,10.40
2023-04-11T17:00:49.164Z,7.20
2023-04-11T17:03:18.156Z,4.90
2023-04-11T17:05:47.538Z,5.30
2023-04-11T17:08:15.690Z,6.60
2023-04-11T17:10:44.098Z,4.97
2023-04-11T17:13:12.758Z,5.70
2023-04-11T17:15:41.035Z,4.40
2023-04-11T17:18:09.056Z,5.20
2023-04-11T17:20:37.141Z,4.00
2023-04-11T17:23:06.500Z,4.27
2023-04-11T17:25:34.397Z,4.67
2023-04-11T17:28:02.423Z,5.80
2023-04-11T17:30:31.764Z,5.03
2023-04-11T17:33:00.208Z,6.37
2023-04-11T17:35:28.385Z,15.00
2023-04-11T17:37:56.307Z,6.73
2023-04-11T17:40:25.537Z,6.63
2023-04-11T17:42:53.525Z,7.23
2023-04-11T17:45:22.609Z,9.70
2023-04-11T17:47:51.027Z,7.57
2023-04-11T17:50:20.042Z,8.93
2023-04-11T17:52:48.514Z,9.80
2023-04-11T17:55:17.997Z,8.73
2023-04-11T17:57:49.028Z,7.73
2023-04-11T18:00:23.151Z,7.90
2023-04-11T18:02:52.888Z,8.17
2023-04-11T18:05:25.165Z,9.93
2023-04-11T18:07:56.385Z,7.30
2023-04-11T18:10:25.884Z,7.93
2023-04-11T18:12:57.482Z,8.17
2023-04-11T18:15:26.833Z,8.67
2023-04-11T18:17:55.109Z,8.97
2023-04-11T18:20:23.014Z,9.10
2023-04-11T18:22:54.858Z,9.60
2023-04-11T18:25:23.403Z,7.63
2023-04-11T18:27:51.499Z,5.80
2023-04-11T18:30:21.032Z,7.30
2023-04-11T18:32:50.957Z,5.87
2023-04-11T18:35:19.408Z,8.03
2023-04-11T18:37:47.438Z,7.10
2023-04-11T18:40:15.937Z,7.33
2023-04-11T18:42:46.458Z,9.17
2023-04-11T18:45:15.562Z,6.03
2023-04-11T18:47:46.223Z,7.77
2023-04-11T18:50:15.099Z,8.60
2023-04-11T18:52:44.748Z,9.43
2023-04-11T18:55:13.413Z,9.80
2023-04-11T18:57:43.297Z,9.10
2023-04-11T19:00:18.577Z,6.90
2023-04-11T19:02:50.608Z,10.97
2023-04-11T19:05:19.281Z,7.13
2023-04-11T19:07:47.514Z,6.10
2023-04-11T19:10:15.443Z,3.80
2023-04-11T19:12:43.550Z,3.13
2023-04-11T19:15:12.881Z,3.73
2023-04-11T19:17:41.217Z,3.53
2023-04-11T19:20:13.576Z,3.03
2023-04-11T19:22:41.993Z,3.03
2023-04-11T19:25:12.122Z,3.90
2023-04-11T19:27:42.052Z,3.57
2023-04-11T19:30:13.509Z,3.40
2023-04-11T19:32:43.708Z,3.10
2023-04-11T19:35:13.428Z,4.30
2023-04-11T19:37:41.845Z,8.77
2023-04-11T19:40:13.475Z,4.90
2023-04-11T19:42:41.862Z,5.23
2023-04-11T19:45:10.666Z,5.40
2023-04-11T19:47:39.728Z,5.17
2023-04-11T19:50:08.910Z,4.90
2023-04-11T19:52:38.267Z,6.50
2023-04-11T19:55:07.608Z,7.23
2023-04-11T19:57:36.362Z,7.27
2023-04-11T20:00:11.489Z,6.10
2023-04-11T20:02:39.927Z,5.50
2023-04-11T20:05:09.143Z,5.40
2023-04-11T20:07:39.029Z,6.10
2023-04-11T20:10:08.242Z,6.67
2023-04-11T20:12:36.274Z,9.00
2023-04-11T20:15:04.391Z,5.63
2023-04-11T20:17:32.268Z,5.03
2023-04-11T20:20:05.551Z,7.87
2023-04-11T20:22:33.479Z,7.83
2023-04-11T20:25:03.700Z,9.30
2023-04-11T20:27:31.600Z,11.27
2023-04-11T20:30:00.610Z,6.33
2023-04-11T20:32:29.154Z,4.77
2023-04-11T20:34:57.804Z,4.57
2023-04-11T20:37:25.787Z,3.73
2023-04-11T20:39:53.682Z,5.80
2023-04-11T20:42:22.998Z,4.43
2023-04-11T20:44:51.041Z,3.77
2023-04-11T20:47:19.051Z,3.27
2023-04-11T20:49:49.689Z,3.33
2023-04-11T20:52:18.280Z,4.13
2023-04-11T20:54:46.535Z,4.43
2023-04-11T20:57:14.456Z,6.40
2023-04-11T20:59:43.676Z,4.47
2023-04-11T21:02:11.625Z,4.47
2023-04-11T21:04:39.529Z,4.90
2023-04-11T21:07:07.718Z,3.73
2023-04-11T21:09:36.388Z,4.40
2023-04-11T21:12:04.909Z,3.90
2023-04-11T21:14:33.192Z,3.23
2023-04-11T21:17:02.486Z,3.07
2023-04-11T21:19:30.395Z,2.57
2023-04-11T21:21:58.362Z,2.50
2023-04-11T21:24:26.935Z,2.83
2023-04-11T21:26:54.876Z,2.63
2023-04-11T21:29:22.666Z,6.20
2023-04-11T21:31:50.627Z,4.23
2023-04-11T21:34:20.075Z,2.83
2023-04-11T21:36:47.995Z,3.43
2023-04-11T21:39:15.814Z,2.87
2023-04-11T21:41:43.724Z,2.70
2023-04-11T21:44:11.550Z,2.60
2023-04-11T21:46:39.528Z,4.33
2023-04-11T21:49:07.473Z,3.77
2023-04-11T21:51:36.675Z,3.07
2023-04-11T21:54:05.064Z,2.80
2023-04-11T21:56:33.014Z,3.97
2023-04-11T21:59:00.940Z,4.03
2023-04-11T22:01:29.193Z,3.73
2023-04-11T22:03:58.898Z,3.97
2023-04-11T22:06:30.354Z,3.10
2023-04-11T22:09:01.457Z,4.10
2023-04-11T22:11:29.613Z,3.37
2023-04-11T22:13:58.307Z,4.57
2023-04-11T22:16:30.681Z,3.50
2023-04-11T22:19:00.447Z,3.17
2023-04-11T22:21:32.446Z,3.50
2023-04-11T22:24:02.160Z,4.23
2023-04-11T22:26:34.139Z,3.23
2023-04-11T22:29:05.122Z,3.10
2023-04-11T22:31:34.706Z,3.17
2023-04-11T22:34:02.752Z,5.67
2023-04-11T22:36:35.694Z,3.20
2023-04-11T22:39:05.652Z,3.90
2023-04-11T22:41:34.041Z,3.57
2023-04-11T22:44:02.523Z,3.40
2023-04-11T22:46:32.206Z,3.50
2023-04-11T22:49:00.178Z,6.80
2023-04-11T22:51:30.085Z,4.57
2023-04-11T22:53:58.721Z,3.20
2023-04-11T22:56:28.179Z,3.20
2023-04-11T22:58:56.035Z,3.80
2023-04-11T23:01:23.958Z,4.67
2023-04-11T23:03:51.945Z,3.97
2023-04-11T23:06:19.772Z,3.60
2023-04-11T23:08:47.720Z,3.60
2023-04-11T23:11:15.594Z,3.40
2023-04-11T23:13:44.894Z,5.20
2023-04-11T23:16:13.259Z,3.83
2023-04-11T23:18:41.174Z,3.70
2023-04-11T23:21:13.164Z,3.83
2023-04-11T23:23:41.622Z,4.00
2023-04-11T23:26:10.841Z,3.50
2023-04-11T23:28:38.730Z,3.50
2023-04-11T23:31:08.217Z,3.97
2023-04-11T23:33:36.212Z,4.37
2023-04-11T23:36:04.357Z,4.07
2023-04-11T23:38:32.677Z,3.80
2023-04-11T23:41:00.622Z,4.23
2023-04-11T23:43:28.486Z,4.47
2023-04-11T23:45:56.501Z,3.83
2023-04-11T23:48:26.072Z,4.60
2023-04-11T23:50:53.997Z,3.90
2023-04-11T23:53:21.977Z,5.30
2023-04-11T23:55:49.907Z,4.47
2023-04-11T23:58:18.017Z,4.77
